sensor_id;sensor_type;location;lat;lon;timestamp;P1;durP1;ratioP1;P2;durP2;ratioP2
16254;SDS011;8235;52.198;9.904;2023-02-04T00:00:53;17.83;;;3.73;;
16254;SDS011;8235;52.198;9.904;2023-02-04T00:03:22;27.90;;;5.27;;
16254;SDS011;8235;52.198;9.904;2023-02-04T00:05:48;17.77;;;4.20;;
16254;SDS011;8235;52.198;9.904;2023-02-04T00:08:15;25.73;;;3.47;;
16254;SDS011;8235;52.198;9.904;2023-02-04T00:10:41;21.30;;;4.00;;
16254;SDS011;8235;52.198;9.904;2023-02-04T00:13:09;21.07;;;3.57;;
16254;SDS011;8235;52.198;9.904;2023-02-04T00:15:35;19.30;;;3.27;;
16254;SDS011;8235;52.198;9.904;2023-02-04T00:18:02;16.00;;;2.97;;
16254;SDS011;8235;52.198;9.904;2023-02-04T00:20:29;13.87;;;3.27;;
16254;SDS011;8235;52.198;9.904;2023-02-04T00:22:56;15.43;;;3.03;;
16254;SDS011;8235;52.198;9.904;2023-02-04T00:25:22;15.70;;;2.90;;
16254;SDS011;8235;52.198;9.904;2023-02-04T00:27:51;14.53;;;2.93;;
16254;SDS011;8235;52.198;9.904;2023-02-04T00:30:23;18.53;;;2.93;;
16254;SDS011;8235;52.198;9.904;2023-02-04T00:32:50;16.17;;;2.47;;
16254;SDS011;8235;52.198;9.904;2023-02-04T00:35:18;15.00;;;2.60;;
16254;SDS011;8235;52.198;9.904;2023-02-04T00:37:45;21.87;;;3.77;;
16254;SDS011;8235;52.198;9.904;2023-02-04T00:40:12;24.40;;;5.10;;
16254;SDS011;8235;52.198;9.904;2023-02-04T00:42:38;22.80;;;3.57;;
16254;SDS011;8235;52.198;9.904;2023-02-04T00:45:05;19.63;;;3.63;;
16254;SDS011;8235;52.198;9.904;2023-02-04T00:47:33;17.63;;;4.10;;
16254;SDS011;8235;52.198;9.904;2023-02-04T00:50:09;15.33;;;2.67;;
16254;SDS011;8235;52.198;9.904;2023-02-04T00:52:35;13.77;;;3.00;;
16254;SDS011;8235;52.198;9.904;2023-02-04T00:55:02;9.17;;;2.90;;
16254;SDS011;8235;52.198;9.904;2023-02-04T00:57:28;11.00;;;2.17;;
16254;SDS011;8235;52.198;9.904;2023-02-04T00:59:55;14.97;;;2.83;;
16254;SDS011;8235;52.198;9.904;2023-02-04T01:02:21;11.47;;;2.70;;
16254;SDS011;8235;52.198;9.904;2023-02-04T01:04:49;10.83;;;2.13;;
16254;SDS011;8235;52.198;9.904;2023-02-04T01:07:16;9.07;;;2.30;;
16254;SDS011;8235;52.198;9.904;2023-02-04T01:09:42;13.97;;;2.00;;
16254;SDS011;8235;52.198;9.904;2023-02-04T01:12:09;12.90;;;1.97;;
16254;SDS011;8235;52.198;9.904;2023-02-04T01:14:35;10.80;;;1.60;;
16254;SDS011;8235;52.198;9.904;2023-02-04T01:17:02;6.97;;;1.33;;
16254;SDS011;8235;52.198;9.904;2023-02-04T01:19:28;6.80;;;0.80;;
16254;SDS011;8235;52.198;9.904;2023-02-04T01:21:56;6.90;;;1.57;;
16254;SDS011;8235;52.198;9.904;2023-02-04T01:24:23;4.63;;;0.80;;
16254;SDS011;8235;52.198;9.904;2023-02-04T01:26:49;4.33;;;0.97;;
16254;SDS011;8235;52.198;9.904;2023-02-04T01:29:15;6.03;;;0.97;;
16254;SDS011;8235;52.198;9.904;2023-02-04T01:31:42;2.40;;;1.00;;
16254;SDS011;8235;52.198;9.904;2023-02-04T01:34:08;3.83;;;0.70;;
16254;SDS011;8235;52.198;9.904;2023-02-04T01:36:35;4.60;;;1.00;;
16254;SDS011;8235;52.198;9.904;2023-02-04T01:39:03;1.43;;;0.57;;
16254;SDS011;8235;52.198;9.904;2023-02-04T01:41:29;3.07;;;1.60;;
16254;SDS011;8235;52.198;9.904;2023-02-04T01:43:56;3.07;;;0.80;;
16254;SDS011;8235;52.198;9.904;2023-02-04T01:46:23;3.47;;;0.67;;
16254;SDS011;8235;52.198;9.904;2023-02-04T01:48:50;2.00;;;0.83;;
16254;SDS011;8235;52.198;9.904;2023-02-04T01:51:19;1.83;;;0.60;;
16254;SDS011;8235;52.198;9.904;2023-02-04T01:53:51;1.90;;;0.60;;
16254;SDS011;8235;52.198;9.904;2023-02-04T01:56:19;2.30;;;0.70;;
16254;SDS011;8235;52.198;9.904;2023-02-04T01:58:47;1.63;;;1.00;;
16254;SDS011;8235;52.198;9.904;2023-02-04T02:01:15;1.87;;;0.80;;
16254;SDS011;8235;52.198;9.904;2023-02-04T02:03:58;2.43;;;0.70;;
16254;SDS011;8235;52.198;9.904;2023-02-04T02:06:25;1.20;;;0.60;;
16254;SDS011;8235;52.198;9.904;2023-02-04T02:08:53;1.30;;;0.70;;
16254;SDS011;8235;52.198;9.904;2023-02-04T02:11:21;1.43;;;0.40;;
16254;SDS011;8235;52.198;9.904;2023-02-04T02:13:47;1.93;;;0.70;;
16254;SDS011;8235;52.198;9.904;2023-02-04T02:16:14;1.23;;;0.40;;
16254;SDS011;8235;52.198;9.904;2023-02-04T02:18:40;4.83;;;0.70;;
16254;SDS011;8235;52.198;9.904;2023-02-04T02:21:08;4.07;;;0.80;;
16254;SDS011;8235;52.198;9.904;2023-02-04T02:23:45;1.43;;;0.70;;
16254;SDS011;8235;52.198;9.904;2023-02-04T02:26:12;1.73;;;0.50;;
16254;SDS011;8235;52.198;9.904;2023-02-04T02:28:40;2.53;;;0.70;;
16254;SDS011;8235;52.198;9.904;2023-02-04T02:31:07;1.57;;;0.70;;
16254;SDS011;8235;52.198;9.904;2023-02-04T02:33:35;3.70;;;1.37;;
16254;SDS011;8235;52.198;9.904;2023-02-04T02:36:02;0.87;;;0.50;;
16254;SDS011;8235;52.198;9.904;2023-02-04T02:38:28;1.73;;;0.60;;
16254;SDS011;8235;52.198;9.904;2023-02-04T02:40:56;1.33;;;0.47;;
16254;SDS011;8235;52.198;9.904;2023-02-04T02:43:24;2.30;;;0.40;;
16254;SDS011;8235;52.198;9.904;2023-02-04T02:45:53;1.17;;;0.53;;
16254;SDS011;8235;52.198;9.904;2023-02-04T02:48:22;1.27;;;0.50;;
16254;SDS011;8235;52.198;9.904;2023-02-04T02:50:51;1.03;;;0.40;;
16254;SDS011;8235;52.198;9.904;2023-02-04T02:53:18;0.83;;;0.53;;
16254;SDS011;8235;52.198;9.904;2023-02-04T02:55:46;1.10;;;0.50;;
16254;SDS011;8235;52.198;9.904;2023-02-04T02:58:15;2.27;;;0.47;;
16254;SDS011;8235;52.198;9.904;2023-02-04T03:00:45;1.77;;;0.50;;
16254;SDS011;8235;52.198;9.904;2023-02-04T03:03:13;1.27;;;0.50;;
16254;SDS011;8235;52.198;9.904;2023-02-04T03:05:43;0.40;;;0.40;;
16254;SDS011;8235;52.198;9.904;2023-02-04T03:08:14;0.47;;;0.43;;
16254;SDS011;8235;52.198;9.904;2023-02-04T03:10:41;2.30;;;0.67;;
16254;SDS011;8235;52.198;9.904;2023-02-04T03:13:09;2.23;;;0.63;;
16254;SDS011;8235;52.198;9.904;2023-02-04T03:15:38;1.83;;;0.73;;
16254;SDS011;8235;52.198;9.904;2023-02-04T03:18:06;1.00;;;0.73;;
16254;SDS011;8235;52.198;9.904;2023-02-04T03:20:33;1.60;;;1.03;;
16254;SDS011;8235;52.198;9.904;2023-02-04T03:23:00;3.00;;;0.70;;
16254;SDS011;8235;52.198;9.904;2023-02-04T03:25:27;1.67;;;0.90;;
16254;SDS011;8235;52.198;9.904;2023-02-04T03:27:53;1.07;;;0.57;;
16254;SDS011;8235;52.198;9.904;2023-02-04T03:30:22;0.40;;;0.40;;
16254;SDS011;8235;52.198;9.904;2023-02-04T03:32:50;0.57;;;0.50;;
16254;SDS011;8235;52.198;9.904;2023-02-04T03:35:17;1.60;;;0.60;;
16254;SDS011;8235;52.198;9.904;2023-02-04T03:37:44;1.73;;;0.60;;
16254;SDS011;8235;52.198;9.904;2023-02-04T03:40:11;0.90;;;0.60;;
16254;SDS011;8235;52.198;9.904;2023-02-04T03:42:38;2.00;;;0.90;;
16254;SDS011;8235;52.198;9.904;2023-02-04T03:45:05;1.67;;;0.57;;
16254;SDS011;8235;52.198;9.904;2023-02-04T03:47:32;0.67;;;0.50;;
16254;SDS011;8235;52.198;9.904;2023-02-04T03:49:59;2.07;;;0.80;;
16254;SDS011;8235;52.198;9.904;2023-02-04T03:52:26;0.70;;;0.70;;
16254;SDS011;8235;52.198;9.904;2023-02-04T03:54:52;1.00;;;0.57;;
16254;SDS011;8235;52.198;9.904;2023-02-04T03:57:19;0.83;;;0.60;;
16254;SDS011;8235;52.198;9.904;2023-02-04T03:59:45;1.97;;;0.60;;
16254;SDS011;8235;52.198;9.904;2023-02-04T04:02:12;0.40;;;0.40;;
16254;SDS011;8235;52.198;9.904;2023-02-04T04:04:38;0.60;;;0.60;;
16254;SDS011;8235;52.198;9.904;2023-02-04T04:07:06;1.00;;;0.70;;
16254;SDS011;8235;52.198;9.904;2023-02-04T04:09:33;0.70;;;0.67;;
16254;SDS011;8235;52.198;9.904;2023-02-04T04:11:59;0.60;;;0.60;;
16254;SDS011;8235;52.198;9.904;2023-02-04T04:14:27;2.73;;;0.93;;
16254;SDS011;8235;52.198;9.904;2023-02-04T04:16:54;1.97;;;0.70;;
16254;SDS011;8235;52.198;9.904;2023-02-04T04:19:20;1.00;;;0.57;;
16254;SDS011;8235;52.198;9.904;2023-02-04T04:21:48;1.37;;;0.60;;
16254;SDS011;8235;52.198;9.904;2023-02-04T04:24:16;1.20;;;0.60;;
16254;SDS011;8235;52.198;9.904;2023-02-04T04:26:43;2.30;;;0.70;;
16254;SDS011;8235;52.198;9.904;2023-02-04T04:29:09;1.27;;;0.67;;
16254;SDS011;8235;52.198;9.904;2023-02-04T04:31:36;0.90;;;0.60;;
16254;SDS011;8235;52.198;9.904;2023-02-04T04:34:02;1.80;;;0.60;;
16254;SDS011;8235;52.198;9.904;2023-02-04T04:36:28;1.50;;;0.80;;
16254;SDS011;8235;52.198;9.904;2023-02-04T04:38:55;2.03;;;0.90;;
16254;SDS011;8235;52.198;9.904;2023-02-04T04:41:23;1.63;;;0.90;;
16254;SDS011;8235;52.198;9.904;2023-02-04T04:43:49;1.83;;;0.90;;
16254;SDS011;8235;52.198;9.904;2023-02-04T04:46:16;2.40;;;0.90;;
16254;SDS011;8235;52.198;9.904;2023-02-04T04:48:42;1.60;;;0.90;;
16254;SDS011;8235;52.198;9.904;2023-02-04T04:51:08;1.00;;;0.80;;
16254;SDS011;8235;52.198;9.904;2023-02-04T04:53:35;1.17;;;0.73;;
16254;SDS011;8235;52.198;9.904;2023-02-04T04:56:01;0.77;;;0.77;;
16254;SDS011;8235;52.198;9.904;2023-02-04T04:58:29;2.83;;;1.23;;
16254;SDS011;8235;52.198;9.904;2023-02-04T05:00:56;2.03;;;0.90;;
16254;SDS011;8235;52.198;9.904;2023-02-04T05:03:22;0.97;;;0.80;;
16254;SDS011;8235;52.198;9.904;2023-02-04T05:05:49;0.77;;;0.77;;
16254;SDS011;8235;52.198;9.904;2023-02-04T05:08:15;1.20;;;0.87;;
16254;SDS011;8235;52.198;9.904;2023-02-04T05:10:43;1.03;;;0.93;;
16254;SDS011;8235;52.198;9.904;2023-02-04T05:13:10;1.87;;;1.00;;
16254;SDS011;8235;52.198;9.904;2023-02-04T05:15:38;2.47;;;0.90;;
16254;SDS011;8235;52.198;9.904;2023-02-04T05:18:04;1.90;;;1.00;;
16254;SDS011;8235;52.198;9.904;2023-02-04T05:20:31;1.93;;;0.90;;
16254;SDS011;8235;52.198;9.904;2023-02-04T05:22:57;2.57;;;1.03;;
16254;SDS011;8235;52.198;9.904;2023-02-04T05:25:25;1.77;;;1.17;;
16254;SDS011;8235;52.198;9.904;2023-02-04T05:27:52;1.27;;;1.00;;
16254;SDS011;8235;52.198;9.904;2023-02-04T05:30:18;2.23;;;0.90;;
16254;SDS011;8235;52.198;9.904;2023-02-04T05:32:49;3.00;;;0.80;;
16254;SDS011;8235;52.198;9.904;2023-02-04T05:35:16;1.77;;;0.97;;
16254;SDS011;8235;52.198;9.904;2023-02-04T05:37:42;1.63;;;0.90;;
16254;SDS011;8235;52.198;9.904;2023-02-04T05:40:09;1.53;;;1.00;;
16254;SDS011;8235;52.198;9.904;2023-02-04T05:42:36;1.83;;;1.20;;
16254;SDS011;8235;52.198;9.904;2023-02-04T05:45:03;1.43;;;1.10;;
16254;SDS011;8235;52.198;9.904;2023-02-04T05:47:30;1.70;;;1.37;;
16254;SDS011;8235;52.198;9.904;2023-02-04T05:49:57;3.20;;;1.50;;
16254;SDS011;8235;52.198;9.904;2023-02-04T05:52:24;2.33;;;1.60;;
16254;SDS011;8235;52.198;9.904;2023-02-04T05:54:50;1.80;;;1.50;;
16254;SDS011;8235;52.198;9.904;2023-02-04T05:57:17;2.97;;;1.37;;
16254;SDS011;8235;52.198;9.904;2023-02-04T05:59:43;2.10;;;1.73;;
16254;SDS011;8235;52.198;9.904;2023-02-04T06:02:10;3.53;;;1.60;;
16254;SDS011;8235;52.198;9.904;2023-02-04T06:04:36;2.13;;;1.87;;
16254;SDS011;8235;52.198;9.904;2023-02-04T06:07:04;3.27;;;1.87;;
16254;SDS011;8235;52.198;9.904;2023-02-04T06:09:30;2.60;;;1.87;;
16254;SDS011;8235;52.198;9.904;2023-02-04T06:11:58;3.57;;;1.90;;
16254;SDS011;8235;52.198;9.904;2023-02-04T06:14:24;2.97;;;2.67;;
16254;SDS011;8235;52.198;9.904;2023-02-04T06:16:51;2.87;;;1.90;;
16254;SDS011;8235;52.198;9.904;2023-02-04T06:19:17;4.00;;;2.03;;
16254;SDS011;8235;52.198;9.904;2023-02-04T06:21:44;3.90;;;1.57;;
16254;SDS011;8235;52.198;9.904;2023-02-04T06:24:12;1.57;;;1.33;;
16254;SDS011;8235;52.198;9.904;2023-02-04T06:26:38;2.33;;;1.40;;
16254;SDS011;8235;52.198;9.904;2023-02-04T06:29:04;1.90;;;1.37;;
16254;SDS011;8235;52.198;9.904;2023-02-04T06:31:31;3.33;;;2.53;;
16254;SDS011;8235;52.198;9.904;2023-02-04T06:33:57;2.43;;;1.60;;
16254;SDS011;8235;52.198;9.904;2023-02-04T06:36:24;1.60;;;1.50;;
16254;SDS011;8235;52.198;9.904;2023-02-04T06:38:50;2.20;;;1.37;;
16254;SDS011;8235;52.198;9.904;2023-02-04T06:41:18;3.13;;;1.20;;
16254;SDS011;8235;52.198;9.904;2023-02-04T06:43:45;1.80;;;1.23;;
16254;SDS011;8235;52.198;9.904;2023-02-04T06:46:11;3.07;;;1.37;;
16254;SDS011;8235;52.198;9.904;2023-02-04T06:48:38;1.43;;;1.30;;
16254;SDS011;8235;52.198;9.904;2023-02-04T06:51:04;1.60;;;1.37;;
16254;SDS011;8235;52.198;9.904;2023-02-04T06:53:31;3.83;;;1.30;;
16254;SDS011;8235;52.198;9.904;2023-02-04T06:55:57;2.23;;;1.43;;
16254;SDS011;8235;52.198;9.904;2023-02-04T06:58:25;1.87;;;1.30;;
16254;SDS011;8235;52.198;9.904;2023-02-04T07:00:51;2.00;;;1.40;;
16254;SDS011;8235;52.198;9.904;2023-02-04T07:03:18;1.40;;;1.30;;
16254;SDS011;8235;52.198;9.904;2023-02-04T07:05:44;2.37;;;1.43;;
16254;SDS011;8235;52.198;9.904;2023-02-04T07:08:11;2.70;;;1.60;;
16254;SDS011;8235;52.198;9.904;2023-02-04T07:10:37;3.63;;;1.80;;
16254;SDS011;8235;52.198;9.904;2023-02-04T07:13:04;6.17;;;3.47;;
16254;SDS011;8235;52.198;9.904;2023-02-04T07:15:32;6.50;;;3.40;;
16254;SDS011;8235;52.198;9.904;2023-02-04T07:17:58;7.47;;;4.80;;
16254;SDS011;8235;52.198;9.904;2023-02-04T07:20:25;7.67;;;5.13;;
16254;SDS011;8235;52.198;9.904;2023-02-04T07:22:51;8.00;;;5.03;;
16254;SDS011;8235;52.198;9.904;2023-02-04T07:25:18;5.57;;;3.97;;
16254;SDS011;8235;52.198;9.904;2023-02-04T07:27:44;8.77;;;4.33;;
16254;SDS011;8235;52.198;9.904;2023-02-04T07:30:11;6.67;;;4.17;;
16254;SDS011;8235;52.198;9.904;2023-02-04T07:32:39;5.50;;;3.70;;
16254;SDS011;8235;52.198;9.904;2023-02-04T07:35:06;6.07;;;4.23;;
16254;SDS011;8235;52.198;9.904;2023-02-04T07:37:33;5.67;;;4.20;;
16254;SDS011;8235;52.198;9.904;2023-02-04T07:39:59;6.93;;;3.70;;
16254;SDS011;8235;52.198;9.904;2023-02-04T07:42:26;5.73;;;4.13;;
16254;SDS011;8235;52.198;9.904;2023-02-04T07:44:52;5.73;;;4.07;;
16254;SDS011;8235;52.198;9.904;2023-02-04T07:47:20;4.67;;;3.63;;
16254;SDS011;8235;52.198;9.904;2023-02-04T07:49:48;5.63;;;5.03;;
16254;SDS011;8235;52.198;9.904;2023-02-04T07:52:15;6.47;;;5.00;;
16254;SDS011;8235;52.198;9.904;2023-02-04T07:54:41;7.63;;;4.80;;
16254;SDS011;8235;52.198;9.904;2023-02-04T07:57:08;6.23;;;3.30;;
16254;SDS011;8235;52.198;9.904;2023-02-04T07:59:34;3.97;;;2.50;;
16254;SDS011;8235;52.198;9.904;2023-02-04T08:02:00;4.83;;;2.37;;
16254;SDS011;8235;52.198;9.904;2023-02-04T08:04:27;4.13;;;2.00;;
16254;SDS011;8235;52.198;9.904;2023-02-04T08:06:55;2.67;;;1.67;;
16254;SDS011;8235;52.198;9.904;2023-02-04T08:09:21;5.13;;;1.80;;
16254;SDS011;8235;52.198;9.904;2023-02-04T08:11:51;2.50;;;1.80;;
16254;SDS011;8235;52.198;9.904;2023-02-04T08:14:17;3.10;;;1.90;;
16254;SDS011;8235;52.198;9.904;2023-02-04T08:16:44;4.30;;;2.20;;
16254;SDS011;8235;52.198;9.904;2023-02-04T08:19:10;5.43;;;4.93;;
16254;SDS011;8235;52.198;9.904;2023-02-04T08:21:42;2.33;;;2.13;;
16254;SDS011;8235;52.198;9.904;2023-02-04T08:24:11;3.10;;;1.40;;
16254;SDS011;8235;52.198;9.904;2023-02-04T08:26:37;3.63;;;1.60;;
16254;SDS011;8235;52.198;9.904;2023-02-04T08:29:04;7.00;;;5.47;;
16254;SDS011;8235;52.198;9.904;2023-02-04T08:31:31;7.83;;;6.07;;
16254;SDS011;8235;52.198;9.904;2023-02-04T08:33:58;5.37;;;4.03;;
16254;SDS011;8235;52.198;9.904;2023-02-04T08:36:24;5.03;;;3.57;;
16254;SDS011;8235;52.198;9.904;2023-02-04T08:38:50;3.10;;;2.40;;
16254;SDS011;8235;52.198;9.904;2023-02-04T08:41:18;3.80;;;2.47;;
16254;SDS011;8235;52.198;9.904;2023-02-04T08:43:45;3.77;;;2.33;;
16254;SDS011;8235;52.198;9.904;2023-02-04T08:46:11;4.63;;;2.90;;
16254;SDS011;8235;52.198;9.904;2023-02-04T08:48:38;4.07;;;3.13;;
16254;SDS011;8235;52.198;9.904;2023-02-04T08:51:04;4.93;;;3.33;;
16254;SDS011;8235;52.198;9.904;2023-02-04T08:53:31;4.97;;;3.30;;
16254;SDS011;8235;52.198;9.904;2023-02-04T08:55:57;3.43;;;3.07;;
16254;SDS011;8235;52.198;9.904;2023-02-04T08:58:25;3.93;;;3.03;;
16254;SDS011;8235;52.198;9.904;2023-02-04T09:00:51;3.73;;;2.47;;
16254;SDS011;8235;52.198;9.904;2023-02-04T09:03:18;2.97;;;2.47;;
16254;SDS011;8235;52.198;9.904;2023-02-04T09:05:44;3.50;;;2.90;;
16254;SDS011;8235;52.198;9.904;2023-02-04T09:08:11;4.37;;;2.20;;
16254;SDS011;8235;52.198;9.904;2023-02-04T09:10:39;3.83;;;2.47;;
16254;SDS011;8235;52.198;9.904;2023-02-04T09:13:06;2.30;;;2.10;;
16254;SDS011;8235;52.198;9.904;2023-02-04T09:15:37;3.40;;;2.40;;
16254;SDS011;8235;52.198;9.904;2023-02-04T09:18:03;2.40;;;1.73;;
16254;SDS011;8235;52.198;9.904;2023-02-04T09:20:38;4.70;;;1.90;;
16254;SDS011;8235;52.198;9.904;2023-02-04T09:23:05;2.80;;;2.30;;
16254;SDS011;8235;52.198;9.904;2023-02-04T09:25:33;3.13;;;2.10;;
16254;SDS011;8235;52.198;9.904;2023-02-04T09:28:07;2.87;;;1.80;;
16254;SDS011;8235;52.198;9.904;2023-02-04T09:30:36;4.17;;;1.83;;
16254;SDS011;8235;52.198;9.904;2023-02-04T09:33:04;4.73;;;2.17;;
16254;SDS011;8235;52.198;9.904;2023-02-04T09:35:31;3.20;;;1.83;;
16254;SDS011;8235;52.198;9.904;2023-02-04T09:37:58;2.37;;;1.90;;
16254;SDS011;8235;52.198;9.904;2023-02-04T09:40:26;3.60;;;1.80;;
16254;SDS011;8235;52.198;9.904;2023-02-04T09:42:58;4.10;;;1.97;;
16254;SDS011;8235;52.198;9.904;2023-02-04T09:45:26;2.63;;;1.63;;
16254;SDS011;8235;52.198;9.904;2023-02-04T09:47:56;4.10;;;1.97;;
16254;SDS011;8235;52.198;9.904;2023-02-04T09:50:25;6.10;;;2.30;;
16254;SDS011;8235;52.198;9.904;2023-02-04T09:52:54;3.80;;;2.03;;
16254;SDS011;8235;52.198;9.904;2023-02-04T09:55:26;3.30;;;2.13;;
16254;SDS011;8235;52.198;9.904;2023-02-04T09:57:54;3.00;;;1.80;;
16254;SDS011;8235;52.198;9.904;2023-02-04T10:00:22;3.00;;;1.80;;
16254;SDS011;8235;52.198;9.904;2023-02-04T10:02:53;1.90;;;1.60;;
16254;SDS011;8235;52.198;9.904;2023-02-04T10:05:26;4.17;;;1.80;;
16254;SDS011;8235;52.198;9.904;2023-02-04T10:07:56;3.27;;;1.87;;
16254;SDS011;8235;52.198;9.904;2023-02-04T10:10:24;6.90;;;2.17;;
16254;SDS011;8235;52.198;9.904;2023-02-04T10:12:53;2.53;;;1.60;;
16254;SDS011;8235;52.198;9.904;2023-02-04T10:15:26;3.13;;;1.73;;
16254;SDS011;8235;52.198;9.904;2023-02-04T10:17:53;3.43;;;1.93;;
16254;SDS011;8235;52.198;9.904;2023-02-04T10:20:26;4.20;;;1.90;;
16254;SDS011;8235;52.198;9.904;2023-02-04T10:22:53;4.30;;;1.80;;
16254;SDS011;8235;52.198;9.904;2023-02-04T10:25:22;4.53;;;1.70;;
16254;SDS011;8235;52.198;9.904;2023-02-04T10:27:50;2.33;;;1.90;;
16254;SDS011;8235;52.198;9.904;2023-02-04T10:30:19;2.60;;;1.93;;
16254;SDS011;8235;52.198;9.904;2023-02-04T10:32:47;2.27;;;1.90;;
16254;SDS011;8235;52.198;9.904;2023-02-04T10:35:15;4.63;;;1.90;;
16254;SDS011;8235;52.198;9.904;2023-02-04T10:37:44;4.13;;;2.30;;
16254;SDS011;8235;52.198;9.904;2023-02-04T10:40:27;3.27;;;2.40;;
16254;SDS011;8235;52.198;9.904;2023-02-04T10:42:55;3.90;;;2.40;;
16254;SDS011;8235;52.198;9.904;2023-02-04T10:45:22;2.73;;;2.03;;
16254;SDS011;8235;52.198;9.904;2023-02-04T10:47:50;6.17;;;3.10;;
16254;SDS011;8235;52.198;9.904;2023-02-04T10:50:20;3.80;;;2.67;;
16254;SDS011;8235;52.198;9.904;2023-02-04T10:52:48;3.93;;;2.83;;
16254;SDS011;8235;52.198;9.904;2023-02-04T10:55:17;4.93;;;2.57;;
16254;SDS011;8235;52.198;9.904;2023-02-04T10:57:45;3.50;;;2.83;;
16254;SDS011;8235;52.198;9.904;2023-02-04T11:00:15;3.03;;;2.40;;
16254;SDS011;8235;52.198;9.904;2023-02-04T11:02:43;3.70;;;2.10;;
16254;SDS011;8235;52.198;9.904;2023-02-04T11:05:14;4.53;;;2.33;;
16254;SDS011;8235;52.198;9.904;2023-02-04T11:07:45;5.13;;;2.80;;
16254;SDS011;8235;52.198;9.904;2023-02-04T11:10:15;5.47;;;2.40;;
16254;SDS011;8235;52.198;9.904;2023-02-04T11:12:45;3.93;;;2.13;;
16254;SDS011;8235;52.198;9.904;2023-02-04T11:18:03;6.33;;;2.50;;
16254;SDS011;8235;52.198;9.904;2023-02-04T11:20:31;4.03;;;2.53;;
16254;SDS011;8235;52.198;9.904;2023-02-04T11:23:14;4.43;;;1.50;;
16254;SDS011;8235;52.198;9.904;2023-02-04T11:25:42;2.53;;;1.37;;
16254;SDS011;8235;52.198;9.904;2023-02-04T11:28:12;4.53;;;2.07;;
16254;SDS011;8235;52.198;9.904;2023-02-04T11:30:39;3.00;;;2.17;;
16254;SDS011;8235;52.198;9.904;2023-02-04T11:33:19;3.53;;;2.17;;
16254;SDS011;8235;52.198;9.904;2023-02-04T11:36:01;2.67;;;1.87;;
16254;SDS011;8235;52.198;9.904;2023-02-04T11:38:30;3.90;;;1.90;;
16254;SDS011;8235;52.198;9.904;2023-02-04T11:40:58;5.70;;;2.27;;
16254;SDS011;8235;52.198;9.904;2023-02-04T11:43:25;4.80;;;2.17;;
16254;SDS011;8235;52.198;9.904;2023-02-04T11:46:01;5.23;;;2.37;;
16254;SDS011;8235;52.198;9.904;2023-02-04T11:48:30;3.50;;;2.40;;
16254;SDS011;8235;52.198;9.904;2023-02-04T11:50:57;3.83;;;2.00;;
16254;SDS011;8235;52.198;9.904;2023-02-04T11:53:27;4.77;;;2.23;;
16254;SDS011;8235;52.198;9.904;2023-02-04T11:55:56;7.33;;;2.40;;
16254;SDS011;8235;52.198;9.904;2023-02-04T11:58:23;3.27;;;2.40;;
16254;SDS011;8235;52.198;9.904;2023-02-04T12:00:50;4.60;;;2.50;;
16254;SDS011;8235;52.198;9.904;2023-02-04T12:03:21;4.40;;;2.13;;
16254;SDS011;8235;52.198;9.904;2023-02-04T12:05:49;4.10;;;2.10;;
16254;SDS011;8235;52.198;9.904;2023-02-04T12:08:25;3.60;;;2.17;;
16254;SDS011;8235;52.198;9.904;2023-02-04T12:11:09;2.57;;;1.90;;
16254;SDS011;8235;52.198;9.904;2023-02-04T12:13:47;3.93;;;1.90;;
16254;SDS011;8235;52.198;9.904;2023-02-04T12:16:15;2.33;;;1.63;;
16254;SDS011;8235;52.198;9.904;2023-02-04T12:18:41;2.67;;;1.80;;
16254;SDS011;8235;52.198;9.904;2023-02-04T12:21:08;4.57;;;1.80;;
16254;SDS011;8235;52.198;9.904;2023-02-04T12:23:34;3.30;;;1.73;;
16254;SDS011;8235;52.198;9.904;2023-02-04T12:26:01;3.07;;;1.60;;
16254;SDS011;8235;52.198;9.904;2023-02-04T12:28:29;2.27;;;1.70;;
16254;SDS011;8235;52.198;9.904;2023-02-04T12:30:55;2.73;;;1.73;;
16254;SDS011;8235;52.198;9.904;2023-02-04T12:33:22;2.07;;;1.33;;
16254;SDS011;8235;52.198;9.904;2023-02-04T12:35:48;3.73;;;1.70;;
16254;SDS011;8235;52.198;9.904;2023-02-04T12:38:15;3.13;;;1.57;;
16254;SDS011;8235;52.198;9.904;2023-02-04T12:40:41;3.37;;;1.40;;
16254;SDS011;8235;52.198;9.904;2023-02-04T12:43:08;2.90;;;1.23;;
16254;SDS011;8235;52.198;9.904;2023-02-04T12:45:36;2.37;;;1.37;;
16254;SDS011;8235;52.198;9.904;2023-02-04T12:48:04;3.83;;;1.40;;
16254;SDS011;8235;52.198;9.904;2023-02-04T12:50:30;2.73;;;1.00;;
16254;SDS011;8235;52.198;9.904;2023-02-04T12:52:57;2.07;;;1.27;;
16254;SDS011;8235;52.198;9.904;2023-02-04T12:55:25;1.20;;;1.07;;
16254;SDS011;8235;52.198;9.904;2023-02-04T12:57:53;3.20;;;1.40;;
16254;SDS011;8235;52.198;9.904;2023-02-04T13:00:20;1.50;;;1.27;;
16254;SDS011;8235;52.198;9.904;2023-02-04T13:02:49;2.10;;;1.23;;
16254;SDS011;8235;52.198;9.904;2023-02-04T13:05:15;3.23;;;1.40;;
16254;SDS011;8235;52.198;9.904;2023-02-04T13:07:42;1.20;;;1.10;;
16254;SDS011;8235;52.198;9.904;2023-02-04T13:10:09;2.23;;;0.90;;
16254;SDS011;8235;52.198;9.904;2023-02-04T13:12:36;1.50;;;1.00;;
16254;SDS011;8235;52.198;9.904;2023-02-04T13:15:03;1.40;;;1.00;;
16254;SDS011;8235;52.198;9.904;2023-02-04T13:17:30;1.93;;;0.83;;
16254;SDS011;8235;52.198;9.904;2023-02-04T13:19:59;1.40;;;1.00;;
16254;SDS011;8235;52.198;9.904;2023-02-04T13:22:25;0.97;;;0.80;;
16254;SDS011;8235;52.198;9.904;2023-02-04T13:24:52;1.40;;;1.00;;
16254;SDS011;8235;52.198;9.904;2023-02-04T13:27:19;1.43;;;0.70;;
16254;SDS011;8235;52.198;9.904;2023-02-04T13:29:45;1.20;;;1.10;;
16254;SDS011;8235;52.198;9.904;2023-02-04T13:32:12;1.57;;;0.87;;
16254;SDS011;8235;52.198;9.904;2023-02-04T13:34:38;1.50;;;0.80;;
16254;SDS011;8235;52.198;9.904;2023-02-04T13:37:06;1.27;;;0.70;;
16254;SDS011;8235;52.198;9.904;2023-02-04T13:39:33;2.50;;;1.00;;
16254;SDS011;8235;52.198;9.904;2023-02-04T13:41:59;2.00;;;0.93;;
16254;SDS011;8235;52.198;9.904;2023-02-04T13:44:26;1.13;;;1.03;;
16254;SDS011;8235;52.198;9.904;2023-02-04T13:46:52;1.20;;;0.90;;
16254;SDS011;8235;52.198;9.904;2023-02-04T13:49:19;1.53;;;0.80;;
16254;SDS011;8235;52.198;9.904;2023-02-04T13:51:45;1.13;;;0.70;;
16254;SDS011;8235;52.198;9.904;2023-02-04T13:54:13;2.00;;;1.00;;
16254;SDS011;8235;52.198;9.904;2023-02-04T13:56:39;3.83;;;1.20;;
16254;SDS011;8235;52.198;9.904;2023-02-04T13:59:06;1.70;;;1.00;;
16254;SDS011;8235;52.198;9.904;2023-02-04T14:01:32;1.97;;;0.90;;
16254;SDS011;8235;52.198;9.904;2023-02-04T14:04:01;1.53;;;1.00;;
16254;SDS011;8235;52.198;9.904;2023-02-04T14:06:27;2.60;;;0.90;;
16254;SDS011;8235;52.198;9.904;2023-02-04T14:08:57;1.80;;;1.10;;
16254;SDS011;8235;52.198;9.904;2023-02-04T14:11:26;1.73;;;0.93;;
16254;SDS011;8235;52.198;9.904;2023-02-04T14:13:52;2.50;;;0.80;;
16254;SDS011;8235;52.198;9.904;2023-02-04T14:16:19;4.07;;;1.10;;
16254;SDS011;8235;52.198;9.904;2023-02-04T14:18:45;1.53;;;1.10;;
16254;SDS011;8235;52.198;9.904;2023-02-04T14:21:11;1.07;;;0.80;;
16254;SDS011;8235;52.198;9.904;2023-02-04T14:23:38;2.20;;;0.90;;
16254;SDS011;8235;52.198;9.904;2023-02-04T14:26:05;1.70;;;0.90;;
16254;SDS011;8235;52.198;9.904;2023-02-04T14:28:33;2.17;;;1.10;;
16254;SDS011;8235;52.198;9.904;2023-02-04T14:30:59;1.30;;;1.03;;
16254;SDS011;8235;52.198;9.904;2023-02-04T14:33:26;3.37;;;1.07;;
16254;SDS011;8235;52.198;9.904;2023-02-04T14:35:52;1.50;;;1.00;;
16254;SDS011;8235;52.198;9.904;2023-02-04T14:38:19;1.63;;;1.10;;
16254;SDS011;8235;52.198;9.904;2023-02-04T14:40:45;1.27;;;1.10;;
16254;SDS011;8235;52.198;9.904;2023-02-04T14:43:12;1.83;;;1.07;;
16254;SDS011;8235;52.198;9.904;2023-02-04T14:45:40;3.43;;;1.50;;
16254;SDS011;8235;52.198;9.904;2023-02-04T14:48:09;2.53;;;1.40;;
16254;SDS011;8235;52.198;9.904;2023-02-04T14:50:39;2.23;;;1.00;;
16254;SDS011;8235;52.198;9.904;2023-02-04T14:53:10;1.40;;;0.87;;
16254;SDS011;8235;52.198;9.904;2023-02-04T14:55:36;1.80;;;1.13;;
16254;SDS011;8235;52.198;9.904;2023-02-04T14:58:05;1.10;;;0.77;;
16254;SDS011;8235;52.198;9.904;2023-02-04T15:00:31;3.17;;;1.47;;
16254;SDS011;8235;52.198;9.904;2023-02-04T15:03:01;2.10;;;1.00;;
16254;SDS011;8235;52.198;9.904;2023-02-04T15:05:28;1.23;;;0.70;;